createdAt,value
2018-07-22T00:00:07.681Z,13.00
2018-07-22T00:01:08.546Z,12.90
2018-07-22T00:02:07.690Z,12.90
2018-07-22T00:03:07.683Z,13.60
2018-07-22T00:04:07.699Z,13.60
2018-07-22T00:05:07.696Z,14.00
2018-07-22T00:06:07.719Z,13.80
2018-07-22T00:07:07.714Z,12.90
2018-07-22T00:08:07.707Z,13.80
2018-07-22T00:09:07.725Z,12.90
2018-07-22T00:10:07.735Z,13.60
2018-07-22T00:11:07.731Z,12.80
2018-07-22T00:12:07.756Z,13.10
2018-07-22T00:13:07.735Z,14.00
2018-07-22T00:14:07.749Z,13.30
2018-07-22T00:15:07.753Z,13.70
2018-07-22T00:16:07.756Z,14.00
2018-07-22T00:17:07.760Z,13.20
2018-07-22T00:18:07.763Z,13.50
2018-07-22T00:19:07.786Z,13.80
2018-07-22T00:20:07.804Z,14.20
2018-07-22T00:21:07.780Z,13.30
2018-07-22T00:22:07.787Z,13.70
2018-07-22T00:23:07.796Z,12.90
2018-07-22T00:24:07.799Z,14.10
2018-07-22T00:25:07.811Z,13.20
2018-07-22T00:26:07.816Z,13.90
2018-07-22T00:27:07.810Z,14.30
2018-07-22T00:28:07.827Z,14.60
2018-07-22T00:29:07.846Z,14.00
2018-07-22T00:30:07.833Z,15.00
2018-07-22T00:31:07.836Z,14.70
2018-07-22T00:32:07.862Z,13.80
2018-07-22T00:33:07.847Z,13.90
2018-07-22T00:34:07.854Z,14.00
2018-07-22T00:35:07.860Z,13.80
2018-07-22T00:36:07.869Z,14.30
2018-07-22T00:37:07.868Z,14.10
2018-07-22T00:38:07.870Z,14.40
2018-07-22T00:39:07.888Z,13.30
2018-07-22T00:40:07.884Z,14.00
2018-07-22T00:41:07.894Z,15.20
2018-07-22T00:42:07.910Z,15.10
2018-07-22T00:43:07.908Z,14.70
2018-07-22T00:44:07.918Z,14.30
2018-07-22T00:45:07.916Z,14.90
2018-07-22T00:46:07.925Z,14.60
2018-07-22T00:47:07.925Z,14.40
2018-07-22T00:48:07.934Z,14.20
2018-07-22T00:49:07.936Z,14.30
2018-07-22T00:50:07.938Z,15.10
2018-07-22T00:51:07.954Z,14.10
2018-07-22T00:52:07.946Z,14.40
2018-07-22T00:53:07.963Z,14.40
2018-07-22T00:54:07.968Z,13.70
2018-07-22T00:55:07.963Z,14.20
2018-07-22T00:56:07.975Z,13.80
2018-07-22T00:57:07.979Z,14.80
2018-07-22T00:58:07.991Z,14.00
2018-07-22T00:59:07.981Z,13.80
2018-07-22T01:00:08.047Z,13.30
2018-07-22T01:01:08.005Z,14.00
2018-07-22T01:02:07.998Z,13.70
2018-07-22T01:03:08.019Z,13.90
2018-07-22T01:04:08.015Z,14.10
2018-07-22T01:05:08.022Z,13.50
2018-07-22T01:06:08.022Z,14.00
2018-07-22T01:07:08.033Z,13.90
2018-07-22T01:08:08.039Z,13.70
2018-07-22T01:09:08.042Z,14.60
2018-07-22T01:10:08.045Z,14.30
2018-07-22T01:11:08.088Z,13.10
2018-07-22T01:12:08.051Z,14.50
2018-07-22T01:13:08.067Z,14.30
2018-07-22T01:14:08.083Z,13.90
2018-07-22T01:15:08.070Z,13.60
2018-07-22T01:16:08.082Z,13.80
2018-07-22T01:17:08.074Z,14.10
2018-07-22T01:18:08.083Z,13.90
2018-07-22T01:19:08.093Z,14.30
2018-07-22T01:20:08.095Z,13.70
2018-07-22T01:21:08.102Z,14.20
2018-07-22T01:22:08.107Z,14.00
2018-07-22T01:23:08.108Z,13.20
2018-07-22T01:24:08.121Z,13.70
2018-07-22T01:25:09.071Z,13.50
2018-07-22T01:26:08.133Z,13.90
2018-07-22T01:27:08.143Z,13.40
2018-07-22T01:28:08.147Z,13.90
2018-07-22T01:29:08.141Z,13.70
2018-07-22T01:30:08.161Z,13.90
2018-07-22T01:31:08.153Z,14.70
2018-07-22T01:32:08.164Z,14.10
2018-07-22T01:33:08.161Z,13.70
2018-07-22T01:34:08.167Z,14.10
2018-07-22T01:35:08.181Z,14.50
2018-07-22T01:36:08.180Z,13.60
2018-07-22T01:37:08.185Z,14.10
2018-07-22T01:38:08.195Z,14.00
2018-07-22T01:39:08.188Z,13.90
2018-07-22T01:40:08.211Z,14.30
2018-07-22T01:41:08.210Z,14.80
2018-07-22T01:42:08.214Z,14.40
2018-07-22T01:43:08.258Z,14.30
2018-07-22T01:44:08.220Z,15.20
2018-07-22T01:45:08.228Z,14.30
2018-07-22T01:46:08.233Z,14.00
2018-07-22T01:47:08.250Z,14.30
2018-07-22T01:48:08.245Z,15.00
2018-07-22T01:49:08.250Z,14.90
2018-07-22T01:50:08.260Z,14.60
2018-07-22T01:51:11.067Z,15.10
2018-07-22T01:52:08.251Z,14.60
2018-07-22T01:53:08.266Z,15.30
2018-07-22T01:54:08.271Z,14.30
2018-07-22T01:55:08.272Z,14.50
2018-07-22T01:56:08.285Z,15.20
2018-07-22T01:57:08.310Z,15.00
2018-07-22T01:58:08.289Z,14.50
2018-07-22T01:59:08.328Z,14.20
2018-07-22T02:00:08.300Z,15.20
2018-07-22T02:01:08.297Z,14.50
2018-07-22T02:02:09.080Z,15.90
2018-07-22T02:03:08.318Z,15.60
2018-07-22T02:04:08.326Z,15.00
2018-07-22T02:05:08.324Z,14.80
2018-07-22T02:06:08.326Z,15.20
2018-07-22T02:07:08.328Z,14.80
2018-07-22T02:08:08.343Z,14.90
2018-07-22T02:09:08.343Z,14.20
2018-07-22T02:10:08.350Z,14.60
2018-07-22T02:11:08.350Z,14.80
2018-07-22T02:12:08.360Z,14.90
2018-07-22T02:13:08.362Z,15.20
2018-07-22T02:14:08.377Z,15.30
2018-07-22T02:15:08.373Z,15.30
2018-07-22T02:16:08.379Z,15.20
2018-07-22T02:17:08.378Z,14.80
2018-07-22T02:18:10.072Z,14.50
2018-07-22T02:19:08.391Z,14.60
2018-07-22T02:20:08.397Z,15.20
2018-07-22T02:21:08.399Z,15.00
2018-07-22T02:22:08.405Z,15.20
2018-07-22T02:23:08.405Z,15.00
2018-07-22T02:24:08.416Z,15.90
2018-07-22T02:25:08.430Z,15.00
2018-07-22T02:26:08.419Z,15.50
2018-07-22T02:27:08.436Z,15.40
2018-07-22T02:28:08.442Z,15.90
2018-07-22T02:29:08.437Z,16.70
2018-07-22T02:30:08.448Z,15.50
2018-07-22T02:31:09.083Z,15.80
2018-07-22T02:32:08.459Z,15.90
2018-07-22T02:33:08.463Z,15.90
2018-07-22T02:34:08.478Z,15.60
2018-07-22T02:35:08.474Z,15.40
2018-07-22T02:36:11.080Z,16.10
2018-07-22T02:37:08.472Z,15.70
2018-07-22T02:38:08.490Z,16.10
2018-07-22T02:39:08.487Z,16.80
2018-07-22T02:40:08.499Z,16.40
2018-07-22T02:41:08.501Z,15.80
2018-07-22T02:42:09.090Z,16.30
2018-07-22T02:43:08.513Z,16.70
2018-07-22T02:44:08.504Z,16.20
2018-07-22T02:45:08.529Z,15.70
2018-07-22T02:46:08.518Z,15.60
2018-07-22T02:47:08.521Z,15.70
2018-07-22T02:48:08.532Z,16.20
2018-07-22T02:49:08.541Z,17.10
2018-07-22T02:50:08.538Z,15.80
2018-07-22T02:51:08.552Z,16.70
2018-07-22T02:52:08.555Z,16.90
2018-07-22T02:53:08.552Z,16.60
2018-07-22T02:54:08.552Z,16.60
2018-07-22T02:55:08.554Z,17.10
2018-07-22T02:56:08.570Z,16.50
2018-07-22T02:57:08.567Z,17.30
2018-07-22T02:58:08.592Z,16.20
2018-07-22T02:59:08.586Z,17.00
2018-07-22T03:00:08.594Z,17.00
2018-07-22T03:01:08.605Z,17.10
2018-07-22T03:02:08.607Z,17.50
2018-07-22T03:03:08.598Z,17.60
2018-07-22T03:04:08.603Z,17.40
2018-07-22T03:05:08.604Z,17.10
2018-07-22T03:06:08.617Z,17.30
2018-07-22T03:07:08.620Z,16.50
2018-07-22T03:08:08.621Z,17.00
2018-07-22T03:09:08.636Z,17.30
2018-07-22T03:10:08.634Z,17.70
2018-07-22T03:11:09.605Z,16.70
2018-07-22T03:12:08.650Z,16.80
2018-07-22T03:13:08.646Z,17.40
2018-07-22T03:14:08.657Z,17.30
2018-07-22T03:15:08.654Z,17.30
2018-07-22T03:16:08.663Z,18.30
2018-07-22T03:17:08.709Z,17.10
2018-07-22T03:18:08.663Z,18.00
2018-07-22T03:19:08.679Z,17.50
2018-07-22T03:20:08.683Z,16.60
2018-07-22T03:21:08.693Z,16.90
2018-07-22T03:22:08.678Z,17.10
2018-07-22T03:23:08.696Z,16.80
2018-07-22T03:24:08.691Z,17.10
2018-07-22T03:25:08.704Z,16.30
2018-07-22T03:26:08.701Z,17.90
2018-07-22T03:27:08.705Z,17.70
2018-07-22T03:28:08.714Z,17.70
2018-07-22T03:29:08.722Z,18.20
2018-07-22T03:30:08.717Z,17.20
2018-07-22T03:31:08.733Z,17.90
2018-07-22T03:32:08.733Z,17.50
2018-07-22T03:33:08.740Z,17.40
2018-07-22T03:34:08.741Z,17.90
2018-07-22T03:35:08.756Z,17.70
2018-07-22T03:36:08.744Z,17.50
2018-07-22T03:37:08.758Z,19.00
2018-07-22T03:38:08.778Z,18.80
2018-07-22T03:39:08.766Z,17.90
2018-07-22T03:40:08.770Z,17.00
2018-07-22T03:41:08.772Z,18.50
2018-07-22T03:42:08.782Z,18.00
2018-07-22T03:43:08.796Z,17.00
2018-07-22T03:44:08.783Z,18.00
2018-07-22T03:45:08.797Z,18.50
2018-07-22T03:46:08.802Z,18.20
2018-07-22T03:47:10.617Z,17.90
2018-07-22T03:48:08.806Z,18.30
2018-07-22T03:49:08.802Z,18.30
2018-07-22T03:50:08.828Z,18.20
2018-07-22T03:51:08.813Z,18.00
2018-07-22T03:52:08.835Z,18.30
2018-07-22T03:53:08.838Z,18.00
2018-07-22T03:54:08.839Z,18.30
2018-07-22T03:55:08.832Z,19.00
2018-07-22T03:56:08.843Z,18.00
2018-07-22T03:57:08.846Z,18.30
2018-07-22T03:58:08.850Z,18.40
2018-07-22T03:59:08.858Z,18.30
2018-07-22T04:00:08.862Z,18.50
2018-07-22T04:01:08.856Z,18.90
2018-07-22T04:02:08.889Z,17.70
2018-07-22T04:03:08.874Z,18.60
2018-07-22T04:04:08.881Z,18.30
2018-07-22T04:05:08.877Z,18.00
2018-07-22T04:06:08.880Z,18.30
2018-07-22T04:07:08.919Z,18.70
2018-07-22T04:08:08.887Z,18.20
2018-07-22T04:09:08.898Z,21.10
2018-07-22T04:10:11.609Z,18.20
2018-07-22T04:11:08.910Z,18.40
2018-07-22T04:12:08.916Z,17.90
2018-07-22T04:13:08.912Z,18.10
2018-07-22T04:14:10.620Z,17.70
2018-07-22T04:15:08.927Z,17.60
2018-07-22T04:16:08.929Z,17.60
2018-07-22T04:17:08.946Z,17.90
2018-07-22T04:18:08.942Z,17.90
2018-07-22T04:19:08.960Z,17.60
2018-07-22T04:20:08.954Z,18.80
2018-07-22T04:21:08.967Z,19.10
2018-07-22T04:22:08.959Z,18.20
2018-07-22T04:23:08.968Z,17.10
2018-07-22T04:24:08.961Z,18.20
2018-07-22T04:25:08.980Z,17.90
2018-07-22T04:26:08.979Z,17.00
2018-07-22T04:27:08.991Z,17.80
2018-07-22T04:28:09.007Z,17.50
2018-07-22T04:29:08.989Z,17.10
2018-07-22T04:30:08.991Z,17.20
2018-07-22T04:31:08.997Z,15.60
2018-07-22T04:32:09.002Z,16.20
2018-07-22T04:33:09.011Z,16.70
2018-07-22T04:34:09.027Z,17.50
2018-07-22T04:35:09.018Z,17.00
2018-07-22T04:36:09.027Z,17.60
2018-07-22T04:37:09.024Z,16.70
2018-07-22T04:38:09.035Z,16.40
2018-07-22T04:39:09.041Z,16.40
2018-07-22T04:40:09.048Z,16.60
2018-07-22T04:41:09.056Z,16.90
2018-07-22T04:42:09.066Z,16.60
2018-07-22T04:43:09.063Z,16.10
2018-07-22T04:44:09.067Z,17.00
2018-07-22T04:45:09.100Z,16.80
2018-07-22T04:46:09.070Z,16.80
2018-07-22T04:47:09.150Z,16.40
2018-07-22T04:48:09.083Z,16.50
2018-07-22T04:49:09.093Z,16.40
2018-07-22T04:50:09.097Z,16.10
2018-07-22T04:51:09.098Z,15.80
2018-07-22T04:52:09.110Z,16.00
2018-07-22T04:53:09.104Z,15.80
2018-07-22T04:54:09.120Z,15.80
2018-07-22T04:55:09.119Z,15.50
2018-07-22T04:56:09.121Z,16.20
2018-07-22T04:57:09.131Z,16.70
2018-07-22T04:58:09.138Z,15.10
2018-07-22T04:59:09.144Z,16.40
2018-07-22T05:00:09.149Z,16.20
2018-07-22T05:01:09.148Z,16.20
2018-07-22T05:02:09.150Z,16.50
2018-07-22T05:03:09.170Z,16.70
2018-07-22T05:04:09.164Z,16.30
2018-07-22T05:05:09.175Z,15.60
2018-07-22T05:06:09.182Z,15.30
2018-07-22T05:07:09.179Z,15.60
2018-07-22T05:08:09.180Z,15.50
2018-07-22T05:09:09.195Z,15.20
2018-07-22T05:10:09.204Z,15.40
2018-07-22T05:11:09.202Z,16.50
2018-07-22T05:12:09.202Z,15.80
2018-07-22T05:13:11.140Z,15.70
2018-07-22T05:14:09.222Z,15.50
2018-07-22T05:15:09.228Z,15.30
2018-07-22T05:16:09.232Z,15.90
2018-07-22T05:17:09.229Z,15.40
2018-07-22T05:18:09.253Z,15.60
2018-07-22T05:19:09.246Z,15.30
2018-07-22T05:20:09.244Z,15.60
2018-07-22T05:21:09.259Z,15.40
2018-07-22T05:22:09.261Z,14.70
2018-07-22T05:23:09.270Z,15.10
2018-07-22T05:24:09.275Z,15.60
2018-07-22T05:25:09.287Z,15.30
2018-07-22T05:26:09.290Z,15.10
2018-07-22T05:27:09.290Z,15.30
2018-07-22T05:28:09.303Z,14.80
2018-07-22T05:29:09.300Z,16.80
2018-07-22T05:30:09.318Z,16.00
2018-07-22T05:31:09.324Z,15.70
2018-07-22T05:32:09.316Z,15.40
2018-07-22T05:33:09.325Z,14.10
2018-07-22T05:34:09.329Z,14.80
2018-07-22T05:35:09.333Z,14.30
2018-07-22T05:36:09.424Z,14.00
2018-07-22T05:37:09.348Z,13.80
2018-07-22T05:38:09.357Z,13.50
2018-07-22T05:39:11.148Z,13.50
2018-07-22T05:40:09.372Z,13.10
2018-07-22T05:41:09.393Z,12.20
2018-07-22T05:42:09.450Z,12.80
2018-07-22T05:43:09.399Z,13.00
2018-07-22T05:44:09.400Z,12.70
2018-07-22T05:45:09.405Z,11.90
2018-07-22T05:46:09.415Z,12.90
2018-07-22T05:47:09.429Z,12.10
2018-07-22T05:48:09.432Z,13.00
2018-07-22T05:49:09.453Z,12.20
2018-07-22T05:50:10.156Z,12.50
2018-07-22T05:51:09.459Z,11.50
2018-07-22T05:52:09.476Z,12.00
2018-07-22T05:53:09.480Z,11.60
2018-07-22T05:54:09.490Z,12.60
2018-07-22T05:55:09.511Z,11.60
2018-07-22T05:56:09.517Z,11.10
2018-07-22T05:57:09.524Z,11.60
2018-07-22T05:58:09.533Z,11.30
2018-07-22T05:59:09.542Z,11.70
2018-07-22T06:00:09.552Z,11.50
2018-07-22T06:01:09.556Z,11.00
2018-07-22T06:02:09.572Z,11.10
2018-07-22T06:03:09.600Z,11.40
2018-07-22T06:04:09.593Z,10.90
2018-07-22T06:05:09.609Z,10.90
2018-07-22T06:06:09.624Z,10.90
2018-07-22T06:07:09.633Z,10.30
2018-07-22T06:08:09.639Z,10.90
2018-07-22T06:09:09.654Z,10.50
2018-07-22T06:10:09.724Z,9.90
2018-07-22T06:11:09.686Z,10.90
2018-07-22T06:12:09.768Z,10.30
2018-07-22T06:13:09.704Z,10.60
2018-07-22T06:14:09.720Z,9.60
2018-07-22T06:15:09.724Z,9.90
2018-07-22T06:16:09.740Z,10.20
2018-07-22T06:17:09.758Z,10.20
2018-07-22T06:18:09.761Z,10.50
2018-07-22T06:19:10.671Z,9.80
2018-07-22T06:20:09.788Z,10.00
2018-07-22T06:21:09.796Z,9.30
2018-07-22T06:22:09.813Z,9.60
2018-07-22T06:23:09.827Z,10.60
2018-07-22T06:24:09.843Z,9.60
2018-07-22T06:25:11.664Z,9.80
2018-07-22T06:26:09.884Z,9.40
2018-07-22T06:27:09.881Z,9.40
2018-07-22T06:28:09.906Z,9.80
2018-07-22T06:29:09.915Z,9.20
2018-07-22T06:30:09.934Z,9.30
2018-07-22T06:31:09.938Z,9.40
2018-07-22T06:32:09.952Z,9.50
2018-07-22T06:33:09.965Z,9.10
2018-07-22T06:34:09.980Z,9.00
2018-07-22T06:35:10.006Z,8.50
2018-07-22T06:36:10.023Z,8.30
2018-07-22T06:37:10.018Z,8.70
2018-07-22T06:38:10.038Z,9.40
2018-07-22T06:39:10.047Z,8.20
2018-07-22T06:40:10.090Z,8.40
2018-07-22T06:41:10.083Z,8.50
2018-07-22T06:42:10.101Z,7.90
2018-07-22T06:43:10.110Z,8.70
2018-07-22T06:44:10.126Z,7.80
2018-07-22T06:45:10.135Z,7.90
2018-07-22T06:46:10.171Z,8.30
2018-07-22T06:47:10.180Z,8.40
2018-07-22T06:48:10.195Z,8.30
2018-07-22T06:49:10.195Z,8.40
2018-07-22T06:50:10.215Z,8.20
2018-07-22T06:51:10.230Z,8.00
2018-07-22T06:52:10.240Z,8.70
2018-07-22T06:53:10.263Z,7.70
2018-07-22T06:54:10.276Z,7.60
2018-07-22T06:55:10.291Z,7.70
2018-07-22T06:56:10.302Z,8.30
2018-07-22T06:57:10.384Z,7.40
2018-07-22T06:58:10.340Z,7.70
2018-07-22T06:59:10.351Z,7.80
2018-07-22T07:00:10.375Z,8.00
2018-07-22T07:01:10.383Z,7.70
2018-07-22T07:02:10.400Z,7.60
2018-07-22T07:03:10.420Z,7.70
2018-07-22T07:04:10.433Z,7.60
2018-07-22T07:05:10.467Z,7.40
2018-07-22T07:06:10.479Z,7.20
2018-07-22T07:07:10.488Z,7.10
2018-07-22T07:08:10.496Z,7.10
2018-07-22T07:09:10.521Z,7.00
2018-07-22T07:10:10.530Z,7.10
2018-07-22T07:11:10.560Z,7.20
2018-07-22T07:12:10.573Z,7.30
2018-07-22T07:13:10.584Z,7.40
2018-07-22T07:14:10.611Z,7.00
2018-07-22T07:15:10.621Z,6.80
2018-07-22T07:16:10.636Z,6.60
2018-07-22T07:17:10.660Z,6.60
2018-07-22T07:18:10.676Z,6.50
2018-07-22T07:19:10.699Z,6.50
2018-07-22T07:20:10.711Z,6.50
2018-07-22T07:21:10.733Z,6.70
2018-07-22T07:22:10.741Z,6.50
2018-07-22T07:23:10.767Z,6.80
2018-07-22T07:24:10.830Z,6.70
2018-07-22T07:25:10.795Z,6.40
2018-07-22T07:26:10.831Z,6.10
2018-07-22T07:27:10.841Z,6.10
2018-07-22T07:28:10.853Z,6.30
2018-07-22T07:29:10.869Z,6.50
2018-07-22T07:30:10.897Z,6.30
2018-07-22T07:31:10.907Z,6.50
2018-07-22T07:32:10.927Z,6.20
2018-07-22T07:33:10.987Z,6.10
2018-07-22T07:34:10.968Z,6.40
2018-07-22T07:35:11.003Z,6.50
2018-07-22T07:36:11.005Z,6.40
2018-07-22T07:37:11.148Z,6.40
2018-07-22T07:38:11.035Z,6.20
2018-07-22T07:39:11.061Z,5.80
2018-07-22T07:40:11.115Z,6.10
2018-07-22T07:41:11.090Z,6.10
2018-07-22T07:42:11.110Z,6.30
2018-07-22T07:43:11.128Z,6.50
2018-07-22T07:44:11.159Z,5.90
2018-07-22T07:45:11.181Z,6.70
2018-07-22T07:46:11.187Z,6.70
2018-07-22T07:47:11.210Z,6.20
2018-07-22T07:48:11.224Z,6.30
2018-07-22T07:49:11.239Z,6.00
2018-07-22T07:50:11.268Z,5.70
2018-07-22T07:51:11.284Z,5.80
2018-07-22T07:52:11.307Z,6.10
2018-07-22T07:53:11.339Z,6.50
2018-07-22T07:54:11.348Z,6.30
2018-07-22T07:55:11.355Z,6.10
2018-07-22T07:56:11.379Z,5.80
2018-07-22T07:57:11.402Z,6.30
2018-07-22T07:58:11.418Z,5.70
2018-07-22T07:59:11.441Z,5.50
2018-07-22T08:00:11.457Z,5.80
2018-07-22T08:01:11.486Z,5.40
2018-07-22T08:02:11.497Z,5.90
2018-07-22T08:03:11.519Z,6.00
2018-07-22T08:04:11.538Z,5.70
2018-07-22T08:05:11.555Z,5.50
2018-07-22T08:06:11.573Z,6.00
2018-07-22T08:07:11.603Z,5.70
2018-07-22T08:08:11.639Z,5.20
2018-07-22T08:09:11.643Z,5.40
2018-07-22T08:10:11.653Z,5.20
2018-07-22T08:11:11.687Z,4.90
2018-07-22T08:12:11.696Z,5.30
2018-07-22T08:13:11.723Z,5.00
2018-07-22T08:14:11.739Z,4.60
2018-07-22T08:15:11.762Z,4.80
2018-07-22T08:16:11.787Z,4.60
2018-07-22T08:17:11.806Z,4.80
2018-07-22T08:18:11.825Z,4.60
2018-07-22T08:19:11.917Z,4.80
2018-07-22T08:20:11.868Z,4.50
2018-07-22T08:21:11.882Z,4.80
2018-07-22T08:22:11.932Z,4.50
2018-07-22T08:23:11.930Z,4.60
2018-07-22T08:24:11.949Z,4.50
2018-07-22T08:25:11.970Z,4.30
2018-07-22T08:26:12.057Z,4.10
2018-07-22T08:27:12.009Z,4.30
2018-07-22T08:28:12.035Z,4.30
2018-07-22T08:29:12.050Z,4.60
2018-07-22T08:30:12.069Z,4.10
2018-07-22T08:31:12.105Z,4.70
2018-07-22T08:32:12.114Z,4.20
2018-07-22T08:33:12.139Z,4.00
2018-07-22T08:34:12.164Z,4.00
2018-07-22T08:35:12.178Z,3.60
2018-07-22T08:36:12.205Z,3.80
2018-07-22T08:37:12.225Z,3.80
2018-07-22T08:38:12.259Z,3.80
2018-07-22T08:39:12.274Z,4.00
2018-07-22T08:40:12.284Z,4.00
2018-07-22T08:41:12.322Z,3.90
2018-07-22T08:42:12.333Z,4.40
2018-07-22T08:43:12.352Z,4.10
2018-07-22T08:44:12.379Z,4.20
2018-07-22T08:45:12.410Z,4.00
2018-07-22T08:46:12.422Z,4.50
2018-07-22T08:47:12.442Z,3.70
2018-07-22T08:48:12.459Z,4.50
2018-07-22T08:49:12.489Z,3.70
2018-07-22T08:50:12.508Z,3.50
2018-07-22T08:51:12.526Z,3.70
2018-07-22T08:52:12.555Z,3.30
2018-07-22T08:53:12.619Z,2.90
2018-07-22T08:54:12.598Z,2.80
2018-07-22T08:55:12.639Z,3.00
2018-07-22T08:56:12.640Z,3.10
2018-07-22T08:57:12.656Z,2.90
2018-07-22T08:58:12.686Z,3.10
2018-07-22T08:59:12.716Z,3.00
2018-07-22T09:00:12.741Z,2.80
2018-07-22T09:01:12.747Z,2.70
2018-07-22T09:02:12.771Z,2.80
2018-07-22T09:03:12.797Z,2.50
2018-07-22T09:04:12.816Z,2.80
2018-07-22T09:05:12.851Z,2.90
2018-07-22T09:06:12.858Z,2.60
2018-07-22T09:07:12.881Z,2.50
2018-07-22T09:08:12.917Z,2.50
2018-07-22T09:09:12.923Z,3.10
2018-07-22T09:10:12.946Z,2.30
2018-07-22T09:11:12.977Z,2.60
2018-07-22T09:12:13.001Z,2.40
2018-07-22T09:13:13.114Z,2.40
2018-07-22T09:14:13.040Z,2.80
2018-07-22T09:15:13.068Z,2.50
2018-07-22T09:16:13.136Z,3.10
2018-07-22T09:17:13.116Z,2.30
2018-07-22T09:18:13.142Z,3.00
2018-07-22T09:19:13.155Z,2.70
2018-07-22T09:20:13.168Z,2.70
2018-07-22T09:21:13.208Z,2.30
2018-07-22T09:22:13.217Z,2.60
2018-07-22T09:23:13.245Z,2.70
2018-07-22T09:24:13.263Z,2.70
2018-07-22T09:25:14.236Z,2.70
2018-07-22T09:26:13.312Z,2.70
2018-07-22T09:27:13.332Z,2.50
2018-07-22T09:28:13.358Z,2.60
2018-07-22T09:29:13.374Z,3.10
2018-07-22T09:30:13.393Z,2.50
2018-07-22T09:31:13.419Z,2.40
2018-07-22T09:32:13.433Z,2.50
2018-07-22T09:33:13.468Z,2.70
2018-07-22T09:34:13.488Z,2.60
2018-07-22T09:35:13.507Z,2.40
2018-07-22T09:36:13.688Z,2.70
2018-07-22T09:37:13.553Z,2.60
2018-07-22T09:38:13.578Z,2.50
2018-07-22T09:39:13.598Z,2.40
2018-07-22T09:40:13.620Z,2.40
2018-07-22T09:41:13.641Z,2.70
2018-07-22T09:42:13.666Z,2.60
2018-07-22T09:43:13.691Z,3.20
2018-07-22T09:44:13.704Z,2.20
2018-07-22T09:45:13.762Z,2.20
2018-07-22T09:46:13.752Z,2.60
2018-07-22T09:47:13.781Z,2.20
2018-07-22T09:48:13.858Z,2.40
2018-07-22T09:49:13.824Z,2.30
2018-07-22T09:50:13.847Z,2.60
2018-07-22T09:51:13.866Z,2.40
2018-07-22T09:52:13.898Z,2.40
2018-07-22T09:53:13.910Z,2.20
2018-07-22T09:54:13.935Z,2.20
2018-07-22T09:55:13.962Z,2.30
2018-07-22T09:56:13.979Z,2.60
2018-07-22T09:57:14.063Z,2.30
2018-07-22T09:58:14.024Z,2.10
2018-07-22T09:59:14.100Z,2.40
2018-07-22T10:00:14.087Z,2.20
2018-07-22T10:01:14.108Z,2.60
2018-07-22T10:02:14.127Z,2.10
2018-07-22T10:03:14.133Z,2.20
2018-07-22T10:04:14.165Z,2.30
2018-07-22T10:05:14.197Z,2.90
2018-07-22T10:06:14.201Z,2.10
2018-07-22T10:07:14.234Z,2.30
2018-07-22T10:08:14.257Z,2.20
2018-07-22T10:09:14.270Z,2.70
2018-07-22T10:10:14.301Z,2.30
2018-07-22T10:11:14.359Z,2.20
2018-07-22T10:12:15.249Z,2.50
2018-07-22T10:13:14.513Z,2.00
2018-07-22T10:14:14.664Z,2.20
2018-07-22T10:15:14.416Z,2.30
2018-07-22T10:16:14.436Z,2.30
2018-07-22T10:17:14.487Z,2.20
2018-07-22T10:18:14.505Z,2.30
2018-07-22T10:19:14.514Z,2.10
2018-07-22T10:20:14.535Z,2.40
2018-07-22T10:21:14.556Z,2.30
2018-07-22T10:22:14.574Z,2.00
2018-07-22T10:23:14.640Z,2.30
2018-07-22T10:24:14.611Z,2.60
2018-07-22T10:25:14.656Z,2.30
2018-07-22T10:26:14.655Z,1.90
2018-07-22T10:27:14.687Z,2.10
2018-07-22T10:28:14.709Z,1.90
2018-07-22T10:29:14.728Z,2.20
2018-07-22T10:30:14.775Z,2.20
2018-07-22T10:31:14.772Z,2.50
2018-07-22T10:32:14.793Z,2.30
2018-07-22T10:33:14.818Z,2.50
2018-07-22T10:34:14.849Z,2.30
2018-07-22T10:35:14.861Z,2.10
2018-07-22T10:36:14.896Z,2.10
2018-07-22T10:37:14.921Z,2.20
2018-07-22T10:38:14.931Z,2.40
2018-07-22T10:39:14.955Z,2.10
2018-07-22T10:40:14.972Z,2.50
2018-07-22T10:41:15.001Z,2.30
2018-07-22T10:42:15.016Z,2.60
2018-07-22T10:43:15.078Z,2.50
2018-07-22T10:44:15.062Z,2.30
2018-07-22T10:45:15.160Z,2.50
2018-07-22T10:46:15.099Z,2.30
2018-07-22T10:47:15.135Z,2.30
2018-07-22T10:48:15.149Z,2.60
2018-07-22T10:49:15.181Z,2.40
2018-07-22T10:50:15.202Z,2.40
2018-07-22T10:51:15.232Z,2.30
2018-07-22T10:52:15.244Z,2.30
2018-07-22T10:53:15.275Z,2.30
2018-07-22T10:54:15.277Z,2.30
2018-07-22T10:55:15.300Z,2.60
2018-07-22T10:56:15.320Z,2.10
2018-07-22T10:57:15.337Z,2.20
2018-07-22T10:58:15.365Z,2.60
2018-07-22T10:59:15.406Z,2.40
2018-07-22T11:00:15.399Z,2.50
2018-07-22T11:01:15.420Z,2.40
2018-07-22T11:02:15.453Z,2.60
2018-07-22T11:03:15.483Z,2.40
2018-07-22T11:04:15.485Z,2.60
2018-07-22T11:05:15.520Z,2.30
2018-07-22T11:06:15.573Z,2.00
2018-07-22T11:07:15.552Z,2.60
2018-07-22T11:08:15.576Z,2.30
2018-07-22T11:09:15.589Z,2.70
2018-07-22T11:10:15.613Z,2.50
2018-07-22T11:11:15.630Z,2.60
2018-07-22T11:12:15.657Z,2.60
2018-07-22T11:13:15.674Z,2.70
2018-07-22T11:14:15.860Z,2.30
2018-07-22T11:15:15.717Z,2.70
2018-07-22T11:16:15.736Z,2.60
2018-07-22T11:17:15.749Z,2.70
2018-07-22T11:18:15.769Z,2.50
2018-07-22T11:19:15.796Z,2.50
2018-07-22T11:20:15.811Z,3.30
2018-07-22T11:21:15.892Z,2.80
2018-07-22T11:22:15.903Z,3.20
2018-07-22T11:23:15.873Z,2.70
2018-07-22T11:24:15.887Z,2.80
2018-07-22T11:25:15.903Z,2.90
2018-07-22T11:26:15.929Z,2.80
2018-07-22T11:27:15.938Z,2.90
2018-07-22T11:28:15.968Z,2.90
2018-07-22T11:29:16.023Z,3.00
2018-07-22T11:30:15.991Z,3.20
2018-07-22T11:31:16.027Z,2.90
2018-07-22T11:32:16.038Z,3.00
2018-07-22T11:33:16.048Z,2.80
2018-07-22T11:34:16.070Z,2.50
2018-07-22T11:35:16.085Z,2.50
2018-07-22T11:36:16.136Z,2.70
2018-07-22T11:37:16.211Z,2.70
2018-07-22T11:38:16.141Z,2.60
2018-07-22T11:39:16.191Z,2.40
2018-07-22T11:40:16.169Z,2.80
2018-07-22T11:41:16.200Z,2.80
2018-07-22T11:42:16.212Z,2.60
2018-07-22T11:43:16.227Z,3.10
2018-07-22T11:44:16.242Z,3.30
2018-07-22T11:45:16.262Z,3.10
2018-07-22T11:46:16.278Z,2.80
2018-07-22T11:47:17.285Z,2.90
2018-07-22T11:48:16.314Z,2.70
2018-07-22T11:49:16.337Z,2.80
2018-07-22T11:50:16.382Z,3.00
2018-07-22T11:51:16.370Z,3.20
2018-07-22T11:52:16.384Z,3.40
2018-07-22T11:53:16.401Z,2.90
2018-07-22T11:54:16.418Z,3.40
2018-07-22T11:55:16.434Z,3.20
2018-07-22T11:56:16.450Z,3.50
2018-07-22T11:57:16.467Z,4.00
2018-07-22T11:58:17.278Z,4.20
2018-07-22T11:59:16.507Z,3.50
2018-07-22T12:00:16.596Z,6.10
2018-07-22T12:01:16.533Z,4.40
2018-07-22T12:02:16.556Z,2.90
2018-07-22T12:03:16.561Z,3.20
2018-07-22T12:04:16.580Z,3.30
2018-07-22T12:05:16.590Z,2.90
2018-07-22T12:06:16.605Z,2.90
2018-07-22T12:07:16.679Z,3.30
2018-07-22T12:08:16.639Z,3.10
2018-07-22T12:09:17.283Z,3.10
2018-07-22T12:10:16.665Z,3.00
2018-07-22T12:11:16.689Z,3.00
2018-07-22T12:12:16.757Z,3.30
2018-07-22T12:13:16.740Z,3.50
2018-07-22T12:14:16.735Z,3.10
2018-07-22T12:15:16.754Z,3.30
2018-07-22T12:16:16.756Z,3.20
2018-07-22T12:17:16.777Z,2.80
2018-07-22T12:18:16.791Z,2.90
2018-07-22T12:19:16.809Z,2.90
2018-07-22T12:20:16.822Z,2.70
2018-07-22T12:21:16.868Z,3.20
2018-07-22T12:22:16.846Z,3.00
2018-07-22T12:23:16.866Z,2.80
2018-07-22T12:24:16.908Z,2.80
2018-07-22T12:25:16.898Z,2.90
2018-07-22T12:26:16.916Z,3.30
2018-07-22T12:27:16.933Z,3.30
2018-07-22T12:28:16.943Z,3.30
2018-07-22T12:29:16.958Z,3.20
2018-07-22T12:30:16.966Z,3.20
2018-07-22T12:31:16.980Z,3.20
2018-07-22T12:32:16.993Z,3.30
2018-07-22T12:33:17.011Z,3.20
2018-07-22T12:34:17.040Z,3.10
2018-07-22T12:35:17.036Z,2.80
2018-07-22T12:36:17.058Z,3.10
2018-07-22T12:37:17.065Z,3.30
2018-07-22T12:38:17.104Z,3.20
2018-07-22T12:39:17.115Z,3.20
2018-07-22T12:40:17.126Z,3.40
2018-07-22T12:41:17.128Z,3.10
2018-07-22T12:42:17.152Z,3.20
2018-07-22T12:43:17.156Z,2.60
2018-07-22T12:44:17.177Z,3.00
2018-07-22T12:45:17.180Z,2.80
2018-07-22T12:46:17.201Z,2.90
2018-07-22T12:47:17.212Z,2.80
2018-07-22T12:48:17.221Z,2.80
2018-07-22T12:49:17.241Z,3.00
2018-07-22T12:50:17.252Z,2.90
2018-07-22T12:51:17.270Z,3.00
2018-07-22T12:52:17.289Z,2.80
2018-07-22T12:53:17.294Z,2.70
2018-07-22T12:54:17.311Z,2.80
2018-07-22T12:55:17.323Z,2.80
2018-07-22T12:56:17.562Z,2.90
2018-07-22T12:57:17.356Z,3.30
2018-07-22T12:58:17.368Z,2.70
2018-07-22T12:59:17.384Z,3.00
2018-07-22T13:00:17.395Z,2.80
2018-07-22T13:01:17.407Z,2.60
2018-07-22T13:02:17.420Z,2.50
2018-07-22T13:03:17.445Z,2.60
2018-07-22T13:04:17.455Z,3.00
2018-07-22T13:05:17.469Z,2.80